createdAt,value
2017-10-10T00:08:19.186Z,-80
2017-10-10T00:20:16.905Z,-82
2017-10-10T00:32:13.406Z,-80
2017-10-10T00:44:10.163Z,-80
2017-10-10T00:56:06.306Z,-80
2017-10-10T01:08:02.604Z,-80
2017-10-10T01:19:58.969Z,-80
2017-10-10T01:31:55.824Z,-82
2017-10-10T01:43:52.302Z,-80
2017-10-10T01:55:48.628Z,-84
2017-10-10T02:07:45.126Z,-82
2017-10-10T02:19:41.610Z,-82
2017-10-10T02:31:38.229Z,-82
2017-10-10T02:43:34.532Z,-84
2017-10-10T02:55:30.844Z,-80
2017-10-10T03:07:26.966Z,-82
2017-10-10T03:19:23.327Z,-84
2017-10-10T03:31:19.987Z,-84
2017-10-10T03:43:15.984Z,-84
2017-10-10T03:55:12.488Z,-84
2017-10-10T04:07:09.550Z,-84
2017-10-10T04:19:06.249Z,-84
2017-10-10T04:31:03.568Z,-84
2017-10-10T04:42:59.904Z,-84
2017-10-10T04:54:57.136Z,-84
2017-10-10T05:06:54.691Z,-84
2017-10-10T05:18:52.909Z,-84
2017-10-10T05:31:09.425Z,-84
2017-10-10T05:43:10.344Z,-84
2017-10-10T05:55:08.289Z,-84
2017-10-10T06:07:06.310Z,-82
2017-10-10T06:19:02.644Z,-82
2017-10-10T06:31:08.132Z,-82
2017-10-10T06:43:07.174Z,-82
2017-10-10T06:55:04.829Z,-82
2017-10-10T07:07:01.972Z,-80
2017-10-10T07:19:00.048Z,-84
2017-10-10T07:31:12.589Z,-82
2017-10-10T07:43:11.853Z,-84
2017-10-10T07:55:11.712Z,-84
2017-10-10T08:07:11.529Z,-80
2017-10-10T08:19:07.944Z,-84
2017-10-10T08:31:07.672Z,-84
2017-10-10T08:43:05.389Z,-82
2017-10-10T08:55:02.725Z,-82
2017-10-10T09:07:04.371Z,-84
2017-10-10T09:19:04.353Z,-86
2017-10-10T09:43:08.786Z,-82
2017-10-10T09:55:08.685Z,-84
2017-10-10T10:07:17.676Z,-84
2017-10-10T10:19:28.567Z,-86
2017-10-10T10:31:40.311Z,-88
2017-10-10T10:43:40.955Z,-82
2017-10-10T10:55:49.890Z,-82
2017-10-10T11:07:48.150Z,-86
2017-10-10T11:19:47.208Z,-84
2017-10-10T11:31:49.611Z,-80
2017-10-10T11:43:51.693Z,-82
2017-10-10T11:55:53.155Z,-84
2017-10-10T12:08:02.286Z,-86
2017-10-10T12:20:17.226Z,-84
2017-10-10T12:32:34.593Z,-84
2017-10-10T12:44:37.850Z,-84
2017-10-10T13:09:10.862Z,-84
2017-10-10T13:21:13.663Z,-80
2017-10-10T13:33:40.964Z,-82
2017-10-10T13:45:40.968Z,-82
2017-10-10T13:57:51.928Z,-86
2017-10-10T14:09:52.532Z,-86
2017-10-10T14:21:58.186Z,-86
2017-10-10T14:33:59.327Z,-86
2017-10-10T14:46:00.351Z,-86
2017-10-10T14:58:06.743Z,-86
2017-10-10T15:10:14.108Z,-84
2017-10-10T15:22:37.990Z,-84
2017-10-10T15:46:36.888Z,-86
2017-10-10T15:58:45.683Z,-84
2017-10-10T16:10:46.692Z,-86
2017-10-10T16:22:49.069Z,-86
2017-10-10T16:35:02.606Z,-86
2017-10-10T17:11:29.831Z,-86
2017-10-10T17:35:32.152Z,-88
2017-10-10T17:47:38.206Z,-88
2017-10-10T18:35:46.363Z,-88
2017-10-10T18:47:49.395Z,-86
2017-10-10T18:59:51.888Z,-92
2017-10-10T19:11:57.728Z,-86
2017-10-10T19:24:00.635Z,-84
2017-10-10T19:36:02.291Z,-86
2017-10-10T19:48:02.189Z,-86
2017-10-10T20:00:00.188Z,-88
2017-10-10T20:11:59.209Z,-88
2017-10-10T20:24:01.125Z,-86
2017-10-10T20:36:00.254Z,-86
2017-10-10T20:47:59.574Z,-86
2017-10-10T21:12:15.654Z,-96
2017-10-10T21:24:20.297Z,-96
2017-10-10T21:36:25.673Z,-102
2017-10-10T21:48:28.670Z,-98
2017-10-10T22:12:29.108Z,-96
2017-10-10T22:24:28.610Z,-96
2017-10-10T22:36:35.863Z,-100
2017-10-10T22:48:35.604Z,-96
2017-10-10T23:00:35.044Z,-98
2017-10-10T23:12:37.506Z,-98
2017-10-10T23:24:37.328Z,-96
2017-10-10T23:48:52.167Z,-104
